createdAt,value
2022-09-01T00:00:51.897Z,79.60
2022-09-01T00:03:19.779Z,79.60
2022-09-01T00:05:50.302Z,79.70
2022-09-01T00:08:18.517Z,79.80
2022-09-01T00:10:46.273Z,80.20
2022-09-01T00:13:13.621Z,80.40
2022-09-01T00:15:40.520Z,80.10
2022-09-01T00:18:07.342Z,80.40
2022-09-01T00:20:34.194Z,79.20
2022-09-01T00:23:00.946Z,79.00
2022-09-01T00:25:28.007Z,79.00
2022-09-01T00:27:55.423Z,79.30
2022-09-01T00:30:22.453Z,79.20
2022-09-01T00:32:49.273Z,79.20
2022-09-01T00:35:17.108Z,79.40
2022-09-01T00:37:43.960Z,79.50
2022-09-01T00:40:13.225Z,80.20
2022-09-01T00:42:40.645Z,80.20
2022-09-01T00:45:08.490Z,80.50
2022-09-01T00:47:37.318Z,80.10
2022-09-01T00:50:05.554Z,79.10
2022-09-01T00:52:34.075Z,79.00
2022-09-01T00:55:08.574Z,79.00
2022-09-01T00:57:35.347Z,78.90
2022-09-01T01:00:11.184Z,79.30
2022-09-01T01:02:39.717Z,78.90
2022-09-01T01:05:06.793Z,78.90
2022-09-01T01:07:37.048Z,78.90
2022-09-01T01:10:05.464Z,80.10
2022-09-01T01:12:35.869Z,80.10
2022-09-01T01:15:02.768Z,79.80
2022-09-01T01:17:29.556Z,79.00
2022-09-01T01:20:15.260Z,78.70
2022-09-01T01:23:03.779Z,78.70
2022-09-01T01:25:44.394Z,78.70
2022-09-01T01:28:28.252Z,78.80
2022-09-01T01:30:59.272Z,78.70
2022-09-01T01:33:29.861Z,78.70
2022-09-01T01:35:57.571Z,78.90
2022-09-01T01:38:24.972Z,79.40
2022-09-01T01:40:52.478Z,79.50
2022-09-01T01:43:23.176Z,79.50
2022-09-01T01:45:52.218Z,79.00
2022-09-01T01:48:23.010Z,78.30
2022-09-01T01:50:50.886Z,78.00
2022-09-01T01:53:19.311Z,78.00
2022-09-01T01:55:49.600Z,78.10
2022-09-01T01:58:19.770Z,78.00
2022-09-01T02:00:48.626Z,78.30
2022-09-01T02:03:19.924Z,78.20
2022-09-01T02:05:47.935Z,78.30
2022-09-01T02:08:15.666Z,79.20
2022-09-01T02:10:46.248Z,78.90
2022-09-01T02:13:17.483Z,78.80
2022-09-01T02:15:49.552Z,78.90
2022-09-01T02:18:35.424Z,77.80
2022-09-01T02:21:03.911Z,77.70
2022-09-01T02:23:31.665Z,77.80
2022-09-01T02:26:17.808Z,77.70
2022-09-01T02:28:50.910Z,77.80
2022-09-01T02:31:21.255Z,78.10
2022-09-01T02:33:48.659Z,78.50
2022-09-01T02:36:17.326Z,78.80
2022-09-01T02:38:46.608Z,78.80
2022-09-01T02:41:14.452Z,78.50
2022-09-01T02:43:43.568Z,78.30
2022-09-01T02:46:10.485Z,78.00
2022-09-01T02:48:39.246Z,77.70
2022-09-01T02:51:12.416Z,77.50
2022-09-01T02:53:39.462Z,77.40
2022-09-01T02:56:09.624Z,77.50
2022-09-01T02:58:46.049Z,77.80
2022-09-01T03:01:29.526Z,77.90
2022-09-01T03:04:02.123Z,77.70
2022-09-01T03:06:29.523Z,78.20
2022-09-01T03:08:59.662Z,78.40
2022-09-01T03:11:27.225Z,78.00
2022-09-01T03:13:54.054Z,78.10
2022-09-01T03:16:22.664Z,77.50
2022-09-01T03:18:50.666Z,76.90
2022-09-01T03:21:18.357Z,76.90
2022-09-01T03:23:45.758Z,76.80
2022-09-01T03:26:13.308Z,77.30
2022-09-01T03:28:40.450Z,77.10
2022-09-01T03:31:07.420Z,77.20
2022-09-01T03:33:34.475Z,77.20
2022-09-01T03:36:01.328Z,77.50
2022-09-01T03:38:28.763Z,78.10
2022-09-01T03:41:02.135Z,77.80
2022-09-01T03:43:34.455Z,77.40
2022-09-01T03:46:02.750Z,77.70
2022-09-01T03:48:29.925Z,76.80
2022-09-01T03:51:00.438Z,76.60
2022-09-01T03:53:27.646Z,76.60
2022-09-01T03:55:55.317Z,76.80
2022-09-01T03:58:22.157Z,77.40
2022-09-01T04:00:51.717Z,78.10
2022-09-01T04:03:28.509Z,77.20
2022-09-01T04:05:56.597Z,77.40
2022-09-01T04:08:27.561Z,77.50
2022-09-01T04:11:03.794Z,78.00
2022-09-01T04:13:35.541Z,77.60
2022-09-01T04:16:02.709Z,77.70
2022-09-01T04:18:30.613Z,76.90
2022-09-01T04:20:59.267Z,76.70
2022-09-01T04:23:30.076Z,76.20
2022-09-01T04:26:11.346Z,76.20
2022-09-01T04:28:39.861Z,76.30
2022-09-01T04:31:09.249Z,76.40
2022-09-01T04:33:39.577Z,76.40
2022-09-01T04:36:07.648Z,76.60
2022-09-01T04:38:37.351Z,77.10
2022-09-01T04:41:06.579Z,77.20
2022-09-01T04:43:34.429Z,77.60
2022-09-01T04:46:03.264Z,78.30
2022-09-01T04:48:31.623Z,77.90
2022-09-01T04:50:58.779Z,76.90
2022-09-01T04:53:27.626Z,77.50
2022-09-01T04:55:55.827Z,78.60
2022-09-01T04:58:22.831Z,83.10
2022-09-01T05:00:52.013Z,81.00
2022-09-01T05:03:23.470Z,83.50
2022-09-01T05:05:50.323Z,83.20
2022-09-01T05:08:23.656Z,79.10
2022-09-01T05:10:52.728Z,82.70
2022-09-01T05:13:20.078Z,80.70
2022-09-01T05:15:47.339Z,81.20
2022-09-01T05:18:23.456Z,81.80
2022-09-01T05:20:51.257Z,80.80
2022-09-01T05:23:19.581Z,80.70
2022-09-01T05:25:53.821Z,79.20
2022-09-01T05:28:22.309Z,79.00
2022-09-01T05:30:49.507Z,78.40
2022-09-01T05:33:21.149Z,79.70
2022-09-01T05:36:02.031Z,79.70
2022-09-01T05:38:30.945Z,81.00
2022-09-01T05:41:02.186Z,81.60
2022-09-01T05:43:30.858Z,84.70
2022-09-01T05:46:06.571Z,87.20
2022-09-01T05:48:40.179Z,86.60
2022-09-01T05:51:22.287Z,87.80
2022-09-01T05:53:56.748Z,83.80
2022-09-01T05:56:24.167Z,75.10
2022-09-01T06:01:41.154Z,66.20
2022-09-01T06:04:09.718Z,66.00
2022-09-01T06:07:07.170Z,66.30
2022-09-01T06:09:38.610Z,65.10
2022-09-01T06:12:06.895Z,65.00
2022-09-01T06:14:33.996Z,65.20
2022-09-01T06:17:01.036Z,65.20
2022-09-01T06:19:30.058Z,66.00
2022-09-01T06:22:00.113Z,65.20
2022-09-01T06:24:27.641Z,65.10
2022-09-01T06:26:54.889Z,65.70
2022-09-01T06:29:21.688Z,66.70
2022-09-01T06:31:52.998Z,66.50
2022-09-01T06:34:20.536Z,66.80
2022-09-01T06:36:48.465Z,67.10
2022-09-01T06:39:20.115Z,67.50
2022-09-01T06:41:52.918Z,68.90
2022-09-01T06:44:23.292Z,68.20
2022-09-01T06:46:51.049Z,67.80
2022-09-01T06:49:18.131Z,67.20
2022-09-01T06:51:52.761Z,68.00
2022-09-01T06:54:21.162Z,68.20
2022-09-01T06:56:51.761Z,67.40
2022-09-01T06:59:20.982Z,67.50
2022-09-01T07:01:49.209Z,68.90
2022-09-01T07:04:20.261Z,68.30
2022-09-01T07:12:25.922Z,68.20
2022-09-01T07:17:42.659Z,70.50
2022-09-01T07:20:27.195Z,70.30
2022-09-01T07:23:10.976Z,69.80
2022-09-01T07:28:39.964Z,69.60
2022-09-01T07:39:49.503Z,70.00
2022-09-01T07:42:30.450Z,69.90
2022-09-01T07:45:26.164Z,69.80
2022-09-01T07:47:54.004Z,69.90
2022-09-01T07:53:09.214Z,69.90
2022-09-01T07:55:40.391Z,70.30
2022-09-01T07:58:07.156Z,70.50
2022-09-01T08:00:34.347Z,70.40
2022-09-01T08:03:01.589Z,70.20
2022-09-01T08:05:29.481Z,69.90
2022-09-01T08:07:56.729Z,70.00
2022-09-01T08:10:23.544Z,70.00
2022-09-01T08:12:57.695Z,70.30
2022-09-01T08:16:06.349Z,70.50
2022-09-01T08:18:14.316Z,70.10
2022-09-01T08:20:45.501Z,70.30
2022-09-01T08:23:13.814Z,70.30
2022-09-01T08:25:42.140Z,70.20
2022-09-01T08:28:09.817Z,70.20
2022-09-01T08:30:38.777Z,69.90
2022-09-01T08:33:12.680Z,70.70
2022-09-01T08:35:43.501Z,70.10
2022-09-01T08:38:10.363Z,70.00
2022-09-01T08:40:37.434Z,69.70
2022-09-01T08:43:18.780Z,69.70
2022-09-01T08:45:50.512Z,70.30
2022-09-01T08:51:40.518Z,69.40
2022-09-01T08:54:16.362Z,69.30
2022-09-01T08:56:47.684Z,69.30
2022-09-01T08:59:15.071Z,69.40
2022-09-01T09:01:48.639Z,69.50
2022-09-01T09:04:20.257Z,69.90
2022-09-01T09:06:53.011Z,70.00
2022-09-01T09:09:32.362Z,70.00
2022-09-01T09:12:03.575Z,70.10
2022-09-01T09:14:31.152Z,70.20
2022-09-01T09:16:58.614Z,70.30
2022-09-01T09:19:32.396Z,70.10
2022-09-01T09:22:01.043Z,69.80
2022-09-01T09:24:47.363Z,69.60
2022-09-01T09:27:34.473Z,69.90
2022-09-01T09:30:07.589Z,69.50
2022-09-01T09:35:45.121Z,69.60
2022-09-01T09:38:21.656Z,69.40
2022-09-01T09:41:17.994Z,69.50
2022-09-01T09:43:59.340Z,69.60
2022-09-01T09:46:32.346Z,69.60
2022-09-01T09:49:26.337Z,69.80
2022-09-01T09:52:03.541Z,69.90
2022-09-01T09:54:33.972Z,69.90
2022-09-01T09:57:11.682Z,70.30
2022-09-01T10:00:01.274Z,70.20
2022-09-01T10:02:42.508Z,70.30
2022-09-01T10:05:29.901Z,70.30
2022-09-01T10:07:57.198Z,70.30
2022-09-01T10:10:31.092Z,70.30
2022-09-01T10:12:58.517Z,70.30
2022-09-01T10:15:30.134Z,70.40
2022-09-01T10:18:19.931Z,71.20
2022-09-01T10:20:53.751Z,70.40
2022-09-01T10:23:20.552Z,70.60
2022-09-01T10:25:47.823Z,70.70
2022-09-01T10:28:21.209Z,70.90
2022-09-01T10:30:48.980Z,71.00
2022-09-01T10:33:20.877Z,71.10
2022-09-01T10:35:50.240Z,71.30
2022-09-01T10:38:22.171Z,71.20
2022-09-01T10:41:07.189Z,71.40
2022-09-01T10:43:48.096Z,71.40
2022-09-01T10:46:38.745Z,71.60
2022-09-01T10:49:29.749Z,71.70
2022-09-01T10:52:02.567Z,71.70
2022-09-01T10:54:50.776Z,71.80
2022-09-01T10:57:27.690Z,71.90
2022-09-01T10:59:58.076Z,72.20
2022-09-01T11:02:27.706Z,72.20
2022-09-01T11:04:55.878Z,72.30
2022-09-01T11:07:44.324Z,72.50
2022-09-01T11:10:33.314Z,72.70
2022-09-01T11:13:16.089Z,72.70
2022-09-01T11:15:45.569Z,72.80
2022-09-01T11:18:19.152Z,72.80
2022-09-01T11:20:46.391Z,72.80
2022-09-01T11:23:27.973Z,72.90
2022-09-01T11:28:45.327Z,73.10
2022-09-01T11:31:29.554Z,73.30
2022-09-01T11:34:01.301Z,73.50
2022-09-01T11:36:55.778Z,73.50
2022-09-01T11:39:41.603Z,73.60
2022-09-01T11:42:10.719Z,73.70
2022-09-01T11:44:42.987Z,73.70
2022-09-01T11:47:18.259Z,73.90
2022-09-01T11:49:52.537Z,74.00
2022-09-01T11:52:20.807Z,74.10
2022-09-01T11:54:49.063Z,74.20
2022-09-01T11:57:33.441Z,74.10
2022-09-01T12:00:01.866Z,74.20
2022-09-01T12:02:36.942Z,74.20
2022-09-01T12:05:09.627Z,74.20
2022-09-01T12:07:41.120Z,74.30
2022-09-01T12:10:27.465Z,74.30
2022-09-01T12:13:08.490Z,74.30
2022-09-01T12:15:40.982Z,74.50
2022-09-01T12:18:20.003Z,74.60
2022-09-01T12:20:51.137Z,74.90
2022-09-01T12:23:28.132Z,75.10
2022-09-01T12:25:56.476Z,74.80
2022-09-01T12:28:30.970Z,74.90
2022-09-01T12:31:00.526Z,75.10
2022-09-01T12:33:27.314Z,75.10
2022-09-01T12:36:14.064Z,75.20
2022-09-01T12:38:40.957Z,75.10
2022-09-01T12:41:35.193Z,75.30
2022-09-01T12:44:30.486Z,75.20
2022-09-01T12:46:59.656Z,75.20
2022-09-01T12:49:47.922Z,75.10
2022-09-01T12:52:19.853Z,75.10
2022-09-01T12:54:48.265Z,75.10
2022-09-01T12:57:51.297Z,75.00
2022-09-01T13:00:20.468Z,75.10
2022-09-01T13:03:11.254Z,75.50
2022-09-01T13:05:42.570Z,76.30
2022-09-01T13:08:19.840Z,75.90
2022-09-01T13:10:47.916Z,75.70
2022-09-01T13:13:15.184Z,76.10
2022-09-01T13:15:46.628Z,76.00
2022-09-01T13:18:14.034Z,73.30
2022-09-01T13:20:42.178Z,71.10
2022-09-01T13:23:09.481Z,69.80
2022-09-01T13:25:36.361Z,69.80
2022-09-01T13:28:04.235Z,69.40
2022-09-01T13:30:31.413Z,68.40
2022-09-01T13:35:45.156Z,70.90
2022-09-01T13:38:16.066Z,68.90
2022-09-01T13:40:43.651Z,67.70
2022-09-01T13:43:11.787Z,68.50
2022-09-01T13:45:40.809Z,68.90
2022-09-01T13:48:16.272Z,69.20
2022-09-01T13:53:30.839Z,69.80
2022-09-01T13:58:29.817Z,70.10
2022-09-01T14:00:59.461Z,70.30
2022-09-01T14:03:26.340Z,70.40
2022-09-01T14:05:54.021Z,69.80
2022-09-01T14:08:21.591Z,70.40
2022-09-01T14:10:51.204Z,70.40
2022-09-01T14:13:19.140Z,71.40
2022-09-01T14:15:47.250Z,71.00
2022-09-01T14:18:15.496Z,71.90
2022-09-01T14:20:44.286Z,72.10
2022-09-01T14:23:12.918Z,74.90
2022-09-01T14:25:47.740Z,73.90
2022-09-01T14:28:16.343Z,74.30
2022-09-01T14:30:43.453Z,74.60
2022-09-01T14:33:10.913Z,73.90
2022-09-01T14:35:39.651Z,73.80
2022-09-01T14:38:08.799Z,75.50
2022-09-01T14:40:37.993Z,76.80
2022-09-01T14:43:09.874Z,77.80
2022-09-01T14:45:39.289Z,78.90
2022-09-01T14:48:06.734Z,79.60
2022-09-01T14:50:34.395Z,80.00
2022-09-01T14:53:02.507Z,80.70
2022-09-01T14:55:30.135Z,80.70
2022-09-01T14:57:57.659Z,79.40
2022-09-01T15:00:27.702Z,77.00
2022-09-01T15:02:55.073Z,77.10
2022-09-01T15:05:22.335Z,77.50
2022-09-01T15:07:49.221Z,79.20
2022-09-01T15:10:24.467Z,79.50
2022-09-01T15:12:53.583Z,79.40
2022-09-01T15:15:20.451Z,80.30
2022-09-01T15:17:47.241Z,80.50
2022-09-01T15:20:32.403Z,81.50
2022-09-01T15:22:59.207Z,80.80
2022-09-01T15:25:26.162Z,81.10
2022-09-01T15:27:52.935Z,81.50
2022-09-01T15:30:20.314Z,81.70
2022-09-01T15:32:48.496Z,81.60
2022-09-01T15:35:15.648Z,81.50
2022-09-01T15:37:42.594Z,82.10
2022-09-01T15:40:09.894Z,82.20
2022-09-01T15:42:36.939Z,82.60
2022-09-01T15:45:06.098Z,82.00
2022-09-01T15:47:33.030Z,81.20
2022-09-01T15:50:00.073Z,80.70
2022-09-01T15:52:30.024Z,80.40
2022-09-01T15:54:56.860Z,80.00
2022-09-01T15:57:23.745Z,80.20
2022-09-01T15:59:50.499Z,78.40
2022-09-01T16:02:17.972Z,78.70
2022-09-01T16:04:44.844Z,78.60
2022-09-01T16:07:11.608Z,78.50
2022-09-01T16:09:38.446Z,78.50
2022-09-01T16:12:06.564Z,78.50
2022-09-01T16:14:33.367Z,78.50
2022-09-01T16:17:19.520Z,78.60
2022-09-01T16:20:08.517Z,78.70
2022-09-01T16:22:36.982Z,78.60
2022-09-01T16:25:15.527Z,78.60
2022-09-01T16:27:43.753Z,78.70
2022-09-01T16:30:16.707Z,78.80
2022-09-01T16:32:45.358Z,78.70
2022-09-01T16:35:13.725Z,78.80
2022-09-01T16:38:08.478Z,78.90
2022-09-01T16:41:10.775Z,79.00
2022-09-01T16:43:49.013Z,79.10
2022-09-01T16:46:32.218Z,79.10
2022-09-01T16:49:43.533Z,79.40
2022-09-01T16:52:24.288Z,79.30
2022-09-01T16:55:13.185Z,74.80
2022-09-01T16:57:47.998Z,69.80
2022-09-01T17:00:16.204Z,66.30
2022-09-01T17:03:01.864Z,66.00
2022-09-01T17:05:47.963Z,67.50
2022-09-01T17:08:25.946Z,67.70
2022-09-01T17:11:05.763Z,66.50
2022-09-01T17:13:42.387Z,62.60
2022-09-01T17:16:37.269Z,61.20
2022-09-01T17:19:06.908Z,61.60
2022-09-01T17:21:36.961Z,60.10
2022-09-01T17:24:34.599Z,59.70
2022-09-01T17:27:14.335Z,59.10
2022-09-01T17:29:44.843Z,58.90
2022-09-01T17:32:30.981Z,58.90
2022-09-01T17:35:18.885Z,58.60
2022-09-01T17:38:21.221Z,60.00
2022-09-01T17:41:23.313Z,60.20
2022-09-01T17:44:07.104Z,60.70
2022-09-01T17:46:38.066Z,61.50
2022-09-01T17:49:14.446Z,59.70
2022-09-01T17:51:52.936Z,59.60
2022-09-01T17:54:50.308Z,59.80
2022-09-01T17:57:30.318Z,60.00
2022-09-01T18:00:00.652Z,60.10
2022-09-01T18:02:51.747Z,60.70
2022-09-01T18:05:24.846Z,61.10
2022-09-01T18:08:13.673Z,61.50
2022-09-01T18:10:44.156Z,62.10
2022-09-01T18:13:30.962Z,62.60
2022-09-01T18:16:15.396Z,62.80
2022-09-01T18:18:48.953Z,58.30
2022-09-01T18:21:21.204Z,59.30
2022-09-01T18:23:52.958Z,58.90
2022-09-01T18:26:36.375Z,59.80
2022-09-01T18:29:04.925Z,60.50
2022-09-01T18:31:35.104Z,59.60
2022-09-01T18:34:46.536Z,60.30
2022-09-01T18:37:31.408Z,59.50
2022-09-01T18:40:28.912Z,60.30
2022-09-01T18:43:02.040Z,60.50
2022-09-01T18:45:54.668Z,60.70
2022-09-01T18:48:56.469Z,61.20
2022-09-01T18:51:29.384Z,63.00
2022-09-01T18:54:20.339Z,62.30
2022-09-01T18:56:58.274Z,62.40
2022-09-01T19:00:00.098Z,63.40
2022-09-01T19:02:58.373Z,64.70
2022-09-01T19:05:30.047Z,67.20
2022-09-01T19:08:30.022Z,67.30
2022-09-01T19:11:05.706Z,69.30
2022-09-01T19:14:05.801Z,70.70
2022-09-01T19:16:52.231Z,71.00
2022-09-01T19:19:29.693Z,71.30
2022-09-01T19:21:56.491Z,71.20
2022-09-01T19:24:46.086Z,71.80
2022-09-01T19:27:28.362Z,74.20
2022-09-01T19:29:57.733Z,76.40
2022-09-01T19:32:26.586Z,75.90
2022-09-01T19:34:59.322Z,76.60
2022-09-01T19:37:26.130Z,76.00
2022-09-01T19:39:54.465Z,78.10
2022-09-01T19:42:26.676Z,74.60
2022-09-01T19:45:06.627Z,75.70
2022-09-01T19:47:51.000Z,73.00
2022-09-01T19:50:35.904Z,73.00
2022-09-01T19:53:31.428Z,73.00
2022-09-01T19:56:28.704Z,72.70
2022-09-01T19:59:03.466Z,73.10
2022-09-01T20:01:38.156Z,73.30
2022-09-01T20:04:15.518Z,73.90
2022-09-01T20:06:43.563Z,75.30
2022-09-01T20:09:17.868Z,75.20
2022-09-01T20:11:53.065Z,74.70
2022-09-01T20:14:46.129Z,74.40
2022-09-01T20:17:37.770Z,74.40
2022-09-01T20:20:27.508Z,74.50
2022-09-01T20:22:57.642Z,74.80
2022-09-01T20:25:27.466Z,74.80
2022-09-01T20:28:02.204Z,74.80
2022-09-01T20:30:38.267Z,74.80
2022-09-01T20:33:20.487Z,74.40
2022-09-01T20:36:28.854Z,74.30
2022-09-01T20:39:23.809Z,74.40
2022-09-01T20:41:58.674Z,74.40
2022-09-01T20:44:35.883Z,74.50
2022-09-01T20:47:05.892Z,74.70
2022-09-01T20:49:34.721Z,75.00
2022-09-01T20:52:32.203Z,75.20
2022-09-01T20:55:05.442Z,75.30
2022-09-01T20:57:38.046Z,75.60
2022-09-01T21:00:35.142Z,75.50
2022-09-01T21:03:02.001Z,75.50
2022-09-01T21:05:38.221Z,75.50
2022-09-01T21:08:48.963Z,75.40
2022-09-01T21:11:40.252Z,75.40
2022-09-01T21:14:15.555Z,75.50
2022-09-01T21:16:53.911Z,75.70
2022-09-01T21:19:44.705Z,75.80
2022-09-01T21:22:19.715Z,75.90
2022-09-01T21:24:48.937Z,75.90
2022-09-01T21:27:26.870Z,76.10
2022-09-01T21:30:06.528Z,76.00
2022-09-01T21:32:33.785Z,75.90
2022-09-01T21:35:00.607Z,76.00
2022-09-01T21:37:27.864Z,76.10
2022-09-01T21:39:55.147Z,76.10
2022-09-01T21:42:54.449Z,76.20
2022-09-01T21:45:21.310Z,76.30
2022-09-01T21:47:49.278Z,76.40
2022-09-01T21:50:16.938Z,76.40
2022-09-01T21:52:43.722Z,76.30
2022-09-01T21:55:10.645Z,76.20
2022-09-01T21:57:37.514Z,76.20
2022-09-01T22:00:09.585Z,76.20
2022-09-01T22:02:37.375Z,76.40
2022-09-01T22:05:05.937Z,76.50
2022-09-01T22:07:34.778Z,76.60
2022-09-01T22:12:47.042Z,76.80
2022-09-01T22:15:21.635Z,76.50
2022-09-01T22:17:48.526Z,76.50
2022-09-01T22:20:18.462Z,76.60
2022-09-01T22:22:45.999Z,77.50
2022-09-01T22:25:20.222Z,76.80
2022-09-01T22:27:47.140Z,76.90
2022-09-01T22:30:14.046Z,77.00
2022-09-01T22:32:44.991Z,77.10
2022-09-01T22:35:12.049Z,77.10
2022-09-01T22:37:39.004Z,77.00
2022-09-01T22:40:06.392Z,76.80
2022-09-01T22:42:33.329Z,76.80
2022-09-01T22:45:00.111Z,77.10
2022-09-01T22:47:26.962Z,77.10
2022-09-01T22:49:56.895Z,77.20
2022-09-01T22:52:23.806Z,77.40
2022-09-01T22:54:52.226Z,77.50
2022-09-01T22:57:20.220Z,77.50
2022-09-01T22:59:47.065Z,77.60
2022-09-01T23:02:13.878Z,77.60
2022-09-01T23:04:42.322Z,78.10
2022-09-01T23:07:09.196Z,77.50
2022-09-01T23:09:36.024Z,77.80
2022-09-01T23:12:03.066Z,77.80
2022-09-01T23:14:29.829Z,77.90
2022-09-01T23:16:57.301Z,77.90
2022-09-01T23:19:24.260Z,78.30
2022-09-01T23:21:51.323Z,78.10
2022-09-01T23:24:19.907Z,78.20
2022-09-01T23:26:47.566Z,78.20
2022-09-01T23:29:14.408Z,78.00
2022-09-01T23:31:41.334Z,78.00
2022-09-01T23:34:08.389Z,78.00
2022-09-01T23:36:35.551Z,78.10
2022-09-01T23:39:02.583Z,78.10
2022-09-01T23:41:31.104Z,78.30
2022-09-01T23:43:59.344Z,78.40
2022-09-01T23:46:31.130Z,78.60
2022-09-01T23:48:57.971Z,78.20
2022-09-01T23:51:24.986Z,78.00
2022-09-01T23:53:51.895Z,78.10
2022-09-01T23:56:20.799Z,78.10
2022-09-01T23:58:48.810Z,78.30
